Latest Weather Observations for Coolangatta

IDQ60801

Issued at 12:02 pm EST Saturday 1 October 2022 (issued every 10 minutes, with the page automatically refreshed every 10 minutes)

About weather observations | Map of weather stations | Latest weather observations for QLD | Other Formats
Station Details ID: 040717 Name: COOLANGATTA Lat: -28.17 Lon: 153.51 Height: 4.0 m
Data from the previous 72 hours. | See also: Recent months at Coolangatta

Observations at Coolangatta are collected in the Queensland time zone, which does not include daylight savings during the summer period. Therefore 'Rain since 9am' totals and other values are based on the Queensland time zone.

Date/Time
EST
Temp
°C
App
Temp
°C
Dew
Point
°C
Rel
Hum
%
Delta-T
°C
Wind Press
QNH
hPa
Press
MSL
hPa
Rain since
9am
mm
Dir  Spd
km/h
Gust
km/h
Spd
kts
Gust
kts
01/12:00pm 17.2 15.1 16.1 93 0.6 S 22 33 12 18 1017.4 1017.4 4.4
01/11:59am 17.3 15.2 16.3 94 0.6 S 22 33 12 18 1017.4 1017.4 4.2
01/11:45am 16.9 14.3 15.9 94 0.6 S 24 33 13 18 1017.6 1017.6 3.6
01/11:30am 16.5 13.0 15.4 93 0.6 SSE 28 43 15 23 1017.9 1017.9 2.0
01/11:24am 16.5 12.5 15.2 92 0.8 SSE 30 43 16 23 1017.9 1017.9 1.6
01/11:19am 16.7 13.5 15.2 91 0.9 S 26 39 14 21 1017.9 1017.9 1.2
01/11:01am 17.3 14.2 15.5 89 1.1 S 26 43 14 23 1017.9 1017.9 0.8
01/11:00am 17.3 14.2 15.5 89 1.1 SSW 26 43 14 23 1017.9 1017.9 0.8
01/10:50am 17.9 15.8 15.2 84 1.6 SSW 20 32 11 17 1017.8 1017.8 0.2
01/10:30am 18.9 16.1 14.4 75 2.6 SSW 22 35 12 19 1017.8 1017.8 0.0
01/10:00am 19.9 17.3 13.8 68 3.5 SSW 20 30 11 16 1017.8 1017.8 0.0
01/09:30am 19.5 16.9 13.9 70 3.2 SSW 20 28 11 15 1017.9 1017.9 0.0
01/09:00am 18.5 15.7 13.1 71 3.0 SSW 20 37 11 20 1017.6 1017.6 0.0
01/08:30am 18.6 16.4 13.2 71 3.0 SSW 17 28 9 15 1017.3 1017.3 0.0
01/08:00am 18.0 14.4 12.9 72 2.9 SSW 24 32 13 17 1017.2 1017.2 0.0
01/07:30am 17.8 15.2 13.1 74 2.6 SSW 19 33 10 18 1017.4 1017.4 0.0
01/07:00am 17.4 14.7 12.9 75 2.5 SSW 19 32 10 17 1017.4 1017.4 0.0
01/06:30am 17.1 14.4 12.8 76 2.4 SSW 19 32 10 17 1017.0 1017.0 0.0
01/06:00am 16.8 14.1 12.9 78 2.2 SW 19 28 10 15 1016.8 1016.8 0.0
01/05:30am 16.5 13.8 13.0 80 1.9 SSW 19 26 10 14 1016.4 1016.4 0.0
01/05:00am 16.5 13.6 12.8 79 2.0 SSW 20 32 11 17 1016.1 1016.1 0.0
01/04:30am 16.8 13.0 12.5 76 2.4 SSW 24 35 13 19 1015.7 1015.7 0.0
01/04:00am 16.8 13.5 12.7 77 2.3 SSW 22 33 12 18 1015.8 1015.8 0.0
01/03:30am 16.6 13.7 12.8 78 2.1 SSW 20 30 11 16 1015.8 1015.8 0.0
01/03:00am 16.7 14.3 12.5 76 2.3 SSW 17 26 9 14 1015.7 1015.7 0.0
01/02:30am 16.9 13.9 12.4 75 2.5 SSW 20 30 11 16 1015.7 1015.7 0.0
01/02:00am 16.8 13.9 12.3 75 2.5 SSW 19 32 10 17 1015.6 1015.6 0.0
01/01:30am 16.8 13.8 12.1 74 2.6 SSW 19 28 10 15 1015.6 1015.6 0.0
01/01:00am 17.0 13.9 12.3 74 2.6 SSW 20 30 11 16 1015.8 1015.8 0.0
01/12:30am 17.1 13.6 12.2 73 2.7 SSW 22 33 12 18 1016.1 1016.1 0.0
01/12:00am 17.3 13.4 12.2 72 2.8 SSW 24 39 13 21 1016.3 1016.3 0.0
 
Date/Time
EST
Temp
°C
App
Temp
°C
Dew
Point
°C
Rel
Hum
%
Delta-T
°C
Wind Press
QNH
hPa
Press
MSL
hPa
Rain since
9am
mm
Dir  Spd
km/h
Gust
km/h
Spd
kts
Gust
kts
30/11:30pm 17.5 14.4 12.2 71 2.9 SSW 20 35 11 19 1016.4 1016.4 0.0
30/11:00pm 17.7 13.8 12.2 70 3.0 SSW 24 35 13 19 1016.6 1016.6 0.0
30/10:30pm 17.7 13.4 11.9 69 3.2 S 26 39 14 21 1016.7 1016.7 0.0
30/10:00pm 17.9 13.6 12.1 69 3.2 SSW 26 39 14 21 1017.0 1017.0 0.0
30/09:30pm 17.9 13.6 12.1 69 3.2 S 26 39 14 21 1016.9 1016.9 0.0
30/09:00pm 18.0 15.0 12.0 68 3.3 SSW 19 26 10 14 1017.2 1017.2 0.0
30/08:30pm 18.1 15.5 11.9 67 3.4 SSW 17 28 9 15 1017.7 1017.7 0.0
30/08:00pm 18.5 15.9 12.0 66 3.6 SSW 17 26 9 14 1017.7 1017.7 0.0
30/07:30pm 18.8 16.2 11.9 64 3.8 SSW 17 26 9 14 1017.3 1017.3 0.0
30/07:00pm 18.9 16.2 11.7 63 4.0 S 17 28 9 15 1017.0 1017.0 0.0
30/06:30pm 19.5 16.1 11.3 59 4.5 S 20 32 11 17 1016.3 1016.3 0.0
30/06:00pm 20.0 15.0 11.0 56 4.9 S 28 43 15 23 1015.9 1015.9 0.0
30/05:30pm 20.7 16.0 11.9 57 4.9 S 28 39 15 21 1015.9 1015.9 0.0
30/05:18pm 21.0 16.3 11.9 56 5.1 S 28 46 15 25 1015.6 1015.6 0.0
30/05:00pm 21.3 17.2 12.7 58 4.9 SSE 26 37 14 20 1015.4 1015.4 0.0
30/04:30pm 22.3 18.1 13.4 57 5.1 SSE 28 35 15 19 1015.1 1015.1 0.0
30/04:00pm 23.3 20.3 13.8 55 5.5 SSE 22 32 12 17 1014.6 1014.6 0.0
30/03:30pm 23.4 21.0 13.8 54 5.6 SSE 19 30 10 16 1014.8 1014.8 0.0
30/03:00pm 23.2 20.8 13.9 56 5.4 SSE 19 26 10 14 1014.8 1014.8 0.0
30/02:30pm 23.4 20.9 14.1 56 5.5 SSE 20 32 11 17 1014.7 1014.7 0.0
30/02:00pm 25.1 22.1 13.6 48 6.7 SSE 22 30 12 16 1014.7 1014.7 0.0
30/01:30pm 26.3 22.3 10.5 37 8.8 SSW 22 35 12 19 1014.9 1014.9 0.0
30/01:00pm 25.5 20.9 10.9 40 8.2 SSW 26 37 14 20 1015.0 1015.0 0.0
30/12:30pm 24.4 21.0 10.7 42 7.6 SSW 19 30 10 16 1015.3 1015.3 0.0
30/12:00pm 24.8 20.6 11.0 42 7.7 SW 24 37 13 20 1015.5 1015.5 0.0
30/11:30am 24.2 20.2 10.5 42 7.6 S 22 33 12 18 1015.5 1015.5 0.0
30/11:12am 24.0 18.7 9.9 41 7.7 S 28 46 15 25 1015.7 1015.7 0.0
30/11:00am 24.6 20.4 11.2 43 7.5 SSW 24 43 13 23 1015.9 1015.9 0.0
30/10:30am 23.5 18.3 10.2 43 7.3 S 28 44 15 24 1016.1 1016.1 0.0
30/10:00am 23.2 19.7 10.3 44 7.1 SSW 19 32 10 17 1016.5 1016.5 0.0
30/09:30am 22.5 18.4 10.0 45 6.8 SSW 22 33 12 18 1016.5 1016.5 0.0
30/09:00am 21.9 17.4 10.1 47 6.4 S 24 41 13 22 1016.8 1016.8 0.0
30/08:30am 21.2 17.5 10.1 49 6.0 S 20 33 11 18 1017.2 1017.2 0.0
30/08:00am 20.1 16.6 10.2 53 5.3 SSW 19 28 10 15 1016.9 1016.9 0.0
30/07:30am 19.3 16.5 11.3 60 4.4 S 17 26 9 14 1016.5 1016.5 0.0
30/07:00am 17.4 17.0 12.9 75 2.5 SW 7 15 4 8 1016.5 1016.5 0.0
30/06:30am 15.4 15.2 13.1 86 1.3 SW 6 7 3 4 1016.4 1016.4 0.0
30/06:00am 13.5 12.7 11.7 89 1.0 SW 7 9 4 5 1016.1 1016.1 0.0
30/05:30am 12.9 12.1 11.0 88 1.0 SW 6 9 3 5 1015.8 1015.8 0.0
30/05:00am 14.0 13.2 11.7 86 1.2 SW 7 9 4 5 1015.3 1015.3 0.0
30/04:30am 14.4 13.3 11.9 85 1.3 SW 9 13 5 7 1015.3 1015.3 0.0
30/04:00am 14.1 12.9 12.7 91 0.8 SW 11 17 6 9 1015.0 1015.0 0.0
30/03:30am 12.6 11.9 11.5 93 0.6 SW 6 7 3 4 1014.9 1014.9 0.0
30/03:00am 12.9 13.5 11.8 93 0.6 CALM 0 0 0 0 1015.0 1015.0 0.0
30/02:30am 12.5 12.6 11.4 93 0.6 SW 2 6 1 3 1015.1 1015.1 0.0
30/02:00am 12.7 12.7 11.3 91 0.7 SW 2 6 1 3 1015.4 1015.4 0.0
30/01:30am 12.6 11.8 11.0 90 0.8 SW 6 7 3 4 1015.7 1015.7 0.0
30/01:00am 12.8 12.4 11.0 89 0.9 SW 4 7 2 4 1015.7 1015.7 0.0
30/12:30am 13.4 12.5 11.5 88 1.0 WSW 7 9 4 5 1015.9 1015.9 0.0
30/12:00am 13.8 12.7 12.0 89 1.0 WSW 9 11 5 6 1016.1 1016.1 0.0
 
Date/Time
EST
Temp
°C
App
Temp
°C
Dew
Point
°C
Rel
Hum
%
Delta-T
°C
Wind Press
QNH
hPa
Press
MSL
hPa
Rain since
9am
mm
Dir  Spd
km/h
Gust
km/h
Spd
kts
Gust
kts
29/11:30pm 13.7 12.5 11.6 87 1.1 WSW 9 11 5 6 1016.4 1016.4 0.0
29/11:00pm 14.3 12.8 11.8 85 1.3 SW 11 15 6 8 1016.4 1016.4 0.0
29/10:30pm 13.7 11.4 11.9 89 1.0 WSW 15 17 8 9 1016.4 1016.4 0.0
29/10:00pm 14.0 12.5 11.9 87 1.1 WSW 11 13 6 7 1016.6 1016.6 0.0
29/09:30pm 14.3 13.0 12.5 89 1.0 SW 11 15 6 8 1016.7 1016.7 0.0
29/09:00pm 14.3 12.5 12.2 87 1.1 SW 13 15 7 8 1016.7 1016.7 0.0
29/08:30pm 14.8 13.8 12.3 85 1.4 SW 9 13 5 7 1016.7 1016.7 0.0
29/08:00pm 15.5 13.9 12.8 84 1.5 SW 13 15 7 8 1016.4 1016.4 0.0
29/07:30pm 15.1 13.8 12.4 84 1.5 SSW 11 13 6 7 1016.1 1016.1 0.0
29/07:00pm 15.6 14.6 12.4 81 1.8 S 9 11 5 6 1015.8 1015.8 0.0
29/06:30pm 16.8 16.2 12.3 75 2.5 SSE 7 9 4 5 1015.5 1015.5 0.0
29/06:00pm 17.7 16.4 12.6 72 2.8 SSE 11 13 6 7 1015.2 1015.2 0.0
29/05:30pm 18.5 16.3 10.8 61 4.2 SSE 13 15 7 8 1014.9 1014.9 0.0
29/05:00pm 19.6 16.2 10.6 56 4.9 SE 19 26 10 14 1014.9 1014.9 0.0
29/04:30pm 20.1 15.8 10.8 55 5.1 ESE 24 32 13 17 1014.6 1014.6 0.0
29/04:00pm 21.0 17.2 11.1 53 5.4 SE 22 30 12 16 1014.2 1014.2 0.0
29/03:30pm 21.3 17.2 10.2 49 6.0 SE 22 30 12 16 1013.9 1013.9 0.0
29/03:00pm 20.8 17.0 9.7 49 5.9 SE 20 28 11 15 1013.9 1013.9 0.0
29/02:30pm 20.9 18.3 7.9 43 6.7 SSW 11 19 6 10 1013.8 1013.8 0.0
29/02:00pm 20.9 18.2 7.2 41 7.0 SSW 11 19 6 10 1013.6 1013.6 0.0
29/01:30pm 21.7 19.0 7.5 40 7.3 S 11 17 6 9 1013.8 1013.8 0.0
29/01:00pm 21.2 17.4 5.6 36 7.8 S 15 22 8 12 1014.0 1014.0 0.0
29/12:30pm 21.3 17.8 5.6 36 7.8 SSW 13 24 7 13 1014.0 1014.0 0.0
29/12:00pm 21.4 17.8 4.9 34 8.1 SSW 13 19 7 10 1014.0 1014.0 0.0
29/11:30am 21.6 17.8 5.9 36 7.9 SSW 15 20 8 11 1014.1 1014.1 0.0
29/11:00am 21.3 17.3 4.8 34 8.1 WSW 15 22 8 12 1014.0 1014.0 0.0
29/10:30am 20.8 17.2 4.8 35 7.8 SW 13 20 7 11 1014.2 1014.2 0.0
29/10:00am 20.8 17.5 4.8 35 7.8 WSW 11 20 6 11 1014.6 1014.6 0.0
29/09:30am 20.3 18.4 7.7 44 6.5 W 7 9 4 5 1014.6 1014.6 0.0
29/09:00am 19.3 17.7 8.9 51 5.4 W 7 11 4 6 1014.5 1014.5 0.0
29/08:30am 18.8 16.9 9.0 53 5.1 NW 9 13 5 7 1014.5 1014.5 0.0
29/08:00am 17.9 16.5 10.8 63 3.8 WSW 9 13 5 7 1014.2 1014.2 0.0
29/07:30am 16.0 14.8 10.3 69 3.0 SW 7 11 4 6 1014.7 1014.7 0.0
29/07:00am 14.8 13.9 10.8 77 2.1 SW 6 11 3 6 1014.5 1014.5 0.0
29/06:30am 13.8 12.8 10.2 79 1.9 SW 6 7 3 4 1014.5 1014.5 0.0
29/06:00am 13.0 11.9 10.7 86 1.2 S 7 11 4 6 1013.9 1013.9 0.0
29/05:30am 12.6 12.7 10.0 84 1.3 CALM 0 0 0 0 1013.7 1013.7 0.0
29/05:00am 13.5 12.8 10.1 80 1.8 SSE 4 6 2 3 1013.3 1013.3 0.0
29/04:30am 14.2 13.2 9.0 71 2.6 SSE 4 7 2 4 1013.1 1013.1 0.0
29/04:00am 15.0 13.1 7.5 61 3.7 SSE 7 11 4 6 1012.3 1012.3 0.0
29/03:30am 15.0 12.7 8.9 67 3.1 S 11 13 6 7 1012.0 1012.0 0.0
29/03:00am 15.2 14.4 8.2 63 3.5 SSW 2 11 1 6 1012.1 1012.1 0.0
29/02:30am 18.2 15.2 5.8 44 6.1 SSW 11 19 6 10 1012.2 1012.2 0.0
29/02:00am 18.7 15.7 5.9 43 6.3 SSW 11 20 6 11 1012.1 1012.1 0.0
29/01:30am 18.0 14.9 7.4 50 5.3 S 13 17 7 9 1012.4 1012.4 0.0
29/01:00am 17.8 15.6 9.4 58 4.4 S 11 13 6 7 1012.4 1012.4 0.0
29/12:30am 18.5 16.9 11.6 64 3.8 SSW 11 15 6 8 1012.4 1012.4 0.0
29/12:00am 18.1 18.4 16.1 88 1.2 SW 9 15 5 8 1012.6 1012.6 0.0
 
Date/Time
EST
Temp
°C
App
Temp
°C
Dew
Point
°C
Rel
Hum
%
Delta-T
°C
Wind Press
QNH
hPa
Press
MSL
hPa
Rain since
9am
mm
Dir  Spd
km/h
Gust
km/h
Spd
kts
Gust
kts
28/11:30pm 19.4 20.5 18.1 92 0.8 WSW 9 17 5 9 1012.4 1012.4 0.0
28/11:00pm 19.7 21.4 18.0 90 1.0 NW 6 7 3 4 1012.3 1012.3 0.0
28/10:30pm 20.3 21.5 18.2 88 1.3 NW 9 11 5 6 1012.2 1012.2 0.0
28/10:00pm 21.0 21.7 18.8 87 1.4 NNW 13 20 7 11 1012.1 1012.1 0.0
28/09:57pm 21.0 21.7 18.8 87 1.4 NNW 13 20 7 11 1012.1 1012.1 0.0
28/09:30pm 21.1 22.2 18.9 87 1.4 NW 11 17 6 9 1012.2 1012.2 0.0
28/09:22pm 21.0 22.1 18.9 88 1.3 NW 11 15 6 8 1012.1 1012.1 0.0
28/09:00pm 20.6 21.6 18.7 89 1.2 NNW 11 20 6 11 1012.1 1012.1 0.0
28/08:30pm 20.2 21.5 18.5 90 1.1 NNW 9 13 5 7 1012.3 1012.3 0.0
28/08:00pm 20.2 21.5 18.5 90 1.1 NNW 9 11 5 6 1012.3 1012.3 0.0
28/07:30pm 20.7 20.6 18.8 89 1.2 N 17 20 9 11 1012.1 1012.1 0.0
28/07:00pm 20.8 20.6 18.6 87 1.4 N 17 24 9 13 1011.7 1011.7 0.0
28/06:30pm 21.1 20.5 18.9 87 1.4 N 20 26 11 14 1011.3 1011.3 0.0
28/06:00pm 21.2 21.0 19.3 89 1.2 N 19 24 10 13 1010.9 1010.9 0.0
28/05:30pm 21.6 20.4 19.2 86 1.5 N 24 33 13 18 1010.6 1010.6 0.0
28/05:00pm 21.9 20.5 18.9 83 1.9 N 24 32 13 17 1010.4 1010.4 0.0
28/04:30pm 23.1 20.6 18.0 73 3.2 N 28 35 15 19 1010.1 1010.1 0.0
28/04:00pm 23.2 21.1 18.1 73 3.2 NNW 26 33 14 18 1010.1 1010.1 0.0
28/03:30pm 25.7 24.0 15.7 54 6.1 NW 19 24 10 13 1010.0 1010.0 0.0
28/03:00pm 25.8 23.8 15.5 53 6.3 NW 20 28 11 15 1010.0 1010.0 0.0
28/02:30pm 25.3 23.1 15.9 56 5.7 NW 22 32 12 17 1010.2 1010.2 0.0
28/02:00pm 25.1 22.0 15.7 56 5.7 NW 26 37 14 20 1010.5 1010.5 0.0
28/01:30pm 25.5 22.8 16.6 58 5.5 NW 26 39 14 21 1010.5 1010.5 0.0
28/01:00pm 25.5 22.8 16.6 58 5.5 NW 26 39 14 21 1010.6 1010.6 0.0
28/12:30pm 25.5 23.6 16.6 58 5.5 NW 22 33 12 18 1010.9 1010.9 0.0

Other formats

Comma delimited format used in spreadsheet applications
http://www.bom.gov.au/fwo/IDQ60801/IDQ60801.94592.axf

JavaScript Object Notation format (JSON) in row-major order
http://www.bom.gov.au/fwo/IDQ60801/IDQ60801.94592.json

Data quality

Most of these data are generated automatically and are frequently updated. Quality checks on data are not normally performed. It is possible for incorrect values to appear. Refer to information at About Latest Weather Observations and please check the disclaimer before using these data.